sensor_id;sensor_type;location;lat;lon;timestamp;temperature;humidity
65470;DHT22;52067;50.710;14.492;2022-12-29T00:01:22;3.34;87.73
65470;DHT22;52067;50.710;14.492;2022-12-29T00:03:47;3.53;87.25
65470;DHT22;52067;50.710;14.492;2022-12-29T00:06:13;3.60;86.68
65470;DHT22;52067;50.710;14.492;2022-12-29T00:08:38;3.69;86.49
65470;DHT22;52067;50.710;14.492;2022-12-29T00:11:15;3.73;86.19
65470;DHT22;52067;50.710;14.492;2022-12-29T00:13:40;3.80;85.79
65470;DHT22;52067;50.710;14.492;2022-12-29T00:16:25;3.87;85.65
65470;DHT22;52067;50.710;14.492;2022-12-29T00:18:51;3.89;85.50
65470;DHT22;52067;50.710;14.492;2022-12-29T00:21:18;3.94;85.24
65470;DHT22;52067;50.710;14.492;2022-12-29T00:24:02;3.48;86.42
65470;DHT22;52067;50.710;14.492;2022-12-29T00:26:52;3.46;86.27
65470;DHT22;52067;50.710;14.492;2022-12-29T00:29:36;3.55;86.43
65470;DHT22;52067;50.710;14.492;2022-12-29T00:32:20;3.72;86.20
65470;DHT22;52067;50.710;14.492;2022-12-29T00:35:06;3.77;86.00
65470;DHT22;52067;50.710;14.492;2022-12-29T00:37:46;3.67;85.68
65470;DHT22;52067;50.710;14.492;2022-12-29T00:40:30;3.67;86.17
65470;DHT22;52067;50.710;14.492;2022-12-29T00:43:14;3.70;85.82
65470;DHT22;52067;50.710;14.492;2022-12-29T00:45:58;3.79;85.40
65470;DHT22;52067;50.710;14.492;2022-12-29T00:48:24;3.35;86.15
65470;DHT22;52067;50.710;14.492;2022-12-29T00:51:08;3.49;86.78
65470;DHT22;52067;50.710;14.492;2022-12-29T00:53:34;3.31;87.37
65470;DHT22;52067;50.710;14.492;2022-12-29T00:56:00;3.39;86.63
65470;DHT22;52067;50.710;14.492;2022-12-29T00:58:28;2.83;88.41
65470;DHT22;52067;50.710;14.492;2022-12-29T01:01:07;3.03;88.74
65470;DHT22;52067;50.710;14.492;2022-12-29T01:03:35;3.00;88.80
65470;DHT22;52067;50.710;14.492;2022-12-29T01:06:01;3.04;88.70
65470;DHT22;52067;50.710;14.492;2022-12-29T01:08:28;3.05;89.13
65470;DHT22;52067;50.710;14.492;2022-12-29T01:11:08;2.83;89.46
65470;DHT22;52067;50.710;14.492;2022-12-29T01:13:35;3.03;89.46
65470;DHT22;52067;50.710;14.492;2022-12-29T01:16:01;3.29;88.64
65470;DHT22;52067;50.710;14.492;2022-12-29T01:18:27;3.34;88.19
65470;DHT22;52067;50.710;14.492;2022-12-29T01:21:06;3.53;87.74
65470;DHT22;52067;50.710;14.492;2022-12-29T01:23:31;3.60;87.19
65470;DHT22;52067;50.710;14.492;2022-12-29T01:25:57;3.62;87.30
65470;DHT22;52067;50.710;14.492;2022-12-29T01:28:32;3.53;87.15
65470;DHT22;52067;50.710;14.492;2022-12-29T01:31:00;3.76;86.99
65470;DHT22;52067;50.710;14.492;2022-12-29T01:33:25;3.40;87.65
65470;DHT22;52067;50.710;14.492;2022-12-29T01:35:51;3.60;87.24
65470;DHT22;52067;50.710;14.492;2022-12-29T01:38:16;3.65;86.68
65470;DHT22;52067;50.710;14.492;2022-12-29T01:40:45;3.58;87.07
65470;DHT22;52067;50.710;14.492;2022-12-29T01:43:13;2.88;88.92
65470;DHT22;52067;50.710;14.492;2022-12-29T01:45:45;3.05;89.21
65470;DHT22;52067;50.710;14.492;2022-12-29T01:48:13;3.25;88.71
65470;DHT22;52067;50.710;14.492;2022-12-29T01:50:42;3.29;88.50
65470;DHT22;52067;50.710;14.492;2022-12-29T01:53:12;3.25;88.72
65470;DHT22;52067;50.710;14.492;2022-12-29T01:55:44;3.21;88.31
65470;DHT22;52067;50.710;14.492;2022-12-29T01:58:10;3.32;89.01
65470;DHT22;52067;50.710;14.492;2022-12-29T02:00:37;3.26;88.52
65470;DHT22;52067;50.710;14.492;2022-12-29T02:03:04;3.29;88.76
65470;DHT22;52067;50.710;14.492;2022-12-29T02:05:36;3.46;88.54
65470;DHT22;52067;50.710;14.492;2022-12-29T02:08:03;3.45;88.49
65470;DHT22;52067;50.710;14.492;2022-12-29T02:10:31;3.53;88.19
65470;DHT22;52067;50.710;14.492;2022-12-29T02:12:58;3.60;87.94
65470;DHT22;52067;50.710;14.492;2022-12-29T02:29:53;4.15;87.27
65470;DHT22;52067;50.710;14.492;2022-12-29T02:35:08;4.17;87.26
65470;DHT22;52067;50.710;14.492;2022-12-29T02:40:45;4.00;87.77
65470;DHT22;52067;50.710;14.492;2022-12-29T02:45:58;4.25;86.90
65470;DHT22;52067;50.710;14.492;2022-12-29T02:51:03;3.95;87.43
65470;DHT22;52067;50.710;14.492;2022-12-29T02:53:32;3.72;88.46
65470;DHT22;52067;50.710;14.492;2022-12-29T02:56:17;3.76;88.71
65470;DHT22;52067;50.710;14.492;2022-12-29T02:58:43;3.70;88.67
65470;DHT22;52067;50.710;14.492;2022-12-29T03:01:35;3.93;88.38
65470;DHT22;52067;50.710;14.492;2022-12-29T03:04:37;3.72;88.31
65470;DHT22;52067;50.710;14.492;2022-12-29T03:07:30;3.82;88.15
65470;DHT22;52067;50.710;14.492;2022-12-29T03:12:51;3.89;88.02
65470;DHT22;52067;50.710;14.492;2022-12-29T03:15:50;4.00;86.93
65470;DHT22;52067;50.710;14.492;2022-12-29T03:21:30;3.95;86.62
65470;DHT22;52067;50.710;14.492;2022-12-29T03:24:17;4.07;86.20
65470;DHT22;52067;50.710;14.492;2022-12-29T03:26:45;4.11;85.77
65470;DHT22;52067;50.710;14.492;2022-12-29T03:29:13;4.28;85.68
65470;DHT22;52067;50.710;14.492;2022-12-29T03:31:41;4.42;84.91
65470;DHT22;52067;50.710;14.492;2022-12-29T03:34:08;4.52;84.21
65470;DHT22;52067;50.710;14.492;2022-12-29T03:37:00;4.46;84.51
65470;DHT22;52067;50.710;14.492;2022-12-29T03:39:28;4.27;84.73
65470;DHT22;52067;50.710;14.492;2022-12-29T03:42:03;4.21;85.82
65470;DHT22;52067;50.710;14.492;2022-12-29T03:44:38;4.01;86.47
65470;DHT22;52067;50.710;14.492;2022-12-29T03:47:06;4.04;85.92
65470;DHT22;52067;50.710;14.492;2022-12-29T03:49:32;4.10;86.29
65470;DHT22;52067;50.710;14.492;2022-12-29T03:51:57;4.15;85.60
65470;DHT22;52067;50.710;14.492;2022-12-29T03:54:23;4.15;85.39
65470;DHT22;52067;50.710;14.492;2022-12-29T03:56:48;4.28;85.01
65470;DHT22;52067;50.710;14.492;2022-12-29T03:59:14;4.31;84.92
65470;DHT22;52067;50.710;14.492;2022-12-29T04:01:39;4.24;84.58
65470;DHT22;52067;50.710;14.492;2022-12-29T04:04:04;4.18;84.93
65470;DHT22;52067;50.710;14.492;2022-12-29T04:06:30;4.32;84.86
65470;DHT22;52067;50.710;14.492;2022-12-29T04:08:55;4.28;84.62
65470;DHT22;52067;50.710;14.492;2022-12-29T04:11:21;4.38;84.24
65470;DHT22;52067;50.710;14.492;2022-12-29T04:13:46;4.42;84.12
65470;DHT22;52067;50.710;14.492;2022-12-29T04:16:12;4.31;84.38
65470;DHT22;52067;50.710;14.492;2022-12-29T04:18:37;4.31;84.51
65470;DHT22;52067;50.710;14.492;2022-12-29T04:21:03;4.49;84.47
65470;DHT22;52067;50.710;14.492;2022-12-29T04:23:31;4.45;83.93
65470;DHT22;52067;50.710;14.492;2022-12-29T04:25:57;4.55;84.06
65470;DHT22;52067;50.710;14.492;2022-12-29T04:28:22;4.68;83.83
65470;DHT22;52067;50.710;14.492;2022-12-29T04:30:48;4.56;84.05
65470;DHT22;52067;50.710;14.492;2022-12-29T04:33:13;4.49;84.21
65470;DHT22;52067;50.710;14.492;2022-12-29T04:35:38;4.28;85.09
65470;DHT22;52067;50.710;14.492;2022-12-29T04:38:04;4.28;85.09
65470;DHT22;52067;50.710;14.492;2022-12-29T04:40:29;4.44;85.27
65470;DHT22;52067;50.710;14.492;2022-12-29T04:42:54;4.62;84.39
65470;DHT22;52067;50.710;14.492;2022-12-29T04:45:20;4.42;84.03
65470;DHT22;52067;50.710;14.492;2022-12-29T04:47:45;4.40;84.92
65470;DHT22;52067;50.710;14.492;2022-12-29T04:50:11;4.32;84.44
65470;DHT22;52067;50.710;14.492;2022-12-29T04:52:36;4.25;84.82
65470;DHT22;52067;50.710;14.492;2022-12-29T04:55:02;4.25;84.95
65470;DHT22;52067;50.710;14.492;2022-12-29T04:57:28;4.31;85.00
65470;DHT22;52067;50.710;14.492;2022-12-29T04:59:53;4.30;85.16
65470;DHT22;52067;50.710;14.492;2022-12-29T05:02:19;4.34;85.19
65470;DHT22;52067;50.710;14.492;2022-12-29T05:04:44;4.46;85.12
65470;DHT22;52067;50.710;14.492;2022-12-29T05:07:09;4.25;85.09
65470;DHT22;52067;50.710;14.492;2022-12-29T05:09:35;4.41;84.86
65470;DHT22;52067;50.710;14.492;2022-12-29T05:12:01;4.42;85.00
65470;DHT22;52067;50.710;14.492;2022-12-29T05:14:26;4.30;84.83
65470;DHT22;52067;50.710;14.492;2022-12-29T05:16:52;4.21;85.36
65470;DHT22;52067;50.710;14.492;2022-12-29T05:19:17;4.37;85.07
65470;DHT22;52067;50.710;14.492;2022-12-29T05:21:43;4.46;84.50
65470;DHT22;52067;50.710;14.492;2022-12-29T05:24:08;4.49;84.61
65470;DHT22;52067;50.710;14.492;2022-12-29T05:26:34;4.59;84.26
65470;DHT22;52067;50.710;14.492;2022-12-29T05:28:59;4.56;84.50
65470;DHT22;52067;50.710;14.492;2022-12-29T05:31:25;4.08;86.25
65470;DHT22;52067;50.710;14.492;2022-12-29T05:33:51;4.32;84.97
65470;DHT22;52067;50.710;14.492;2022-12-29T05:36:16;4.42;84.12
65470;DHT22;52067;50.710;14.492;2022-12-29T05:38:42;4.58;83.87
65470;DHT22;52067;50.710;14.492;2022-12-29T05:41:07;4.71;83.31
65470;DHT22;52067;50.710;14.492;2022-12-29T05:43:33;4.58;82.75
65470;DHT22;52067;50.710;14.492;2022-12-29T05:45:58;4.61;83.06
65470;DHT22;52067;50.710;14.492;2022-12-29T05:48:23;4.35;83.98
65470;DHT22;52067;50.710;14.492;2022-12-29T05:50:50;4.25;84.66
65470;DHT22;52067;50.710;14.492;2022-12-29T05:53:16;4.31;83.87
65470;DHT22;52067;50.710;14.492;2022-12-29T05:55:42;4.38;83.24
65470;DHT22;52067;50.710;14.492;2022-12-29T05:58:08;4.46;83.05
65470;DHT22;52067;50.710;14.492;2022-12-29T06:00:34;4.44;83.00
65470;DHT22;52067;50.710;14.492;2022-12-29T06:02:59;4.56;82.30
65470;DHT22;52067;50.710;14.492;2022-12-29T06:05:25;4.49;82.21
65470;DHT22;52067;50.710;14.492;2022-12-29T06:07:50;4.59;81.81
65470;DHT22;52067;50.710;14.492;2022-12-29T06:10:16;4.61;81.96
65470;DHT22;52067;50.710;14.492;2022-12-29T06:12:41;4.69;82.28
65470;DHT22;52067;50.710;14.492;2022-12-29T06:15:07;4.71;82.10
65470;DHT22;52067;50.710;14.492;2022-12-29T06:17:33;4.75;83.25
65470;DHT22;52067;50.710;14.492;2022-12-29T06:19:58;4.66;83.29
65470;DHT22;52067;50.710;14.492;2022-12-29T06:22:24;4.68;84.16
65470;DHT22;52067;50.710;14.492;2022-12-29T06:24:49;4.84;83.41
65470;DHT22;52067;50.710;14.492;2022-12-29T06:27:14;4.75;83.83
65470;DHT22;52067;50.710;14.492;2022-12-29T06:29:40;4.75;83.87
65470;DHT22;52067;50.710;14.492;2022-12-29T06:32:06;4.72;84.47
65470;DHT22;52067;50.710;14.492;2022-12-29T06:34:31;4.72;84.61
65470;DHT22;52067;50.710;14.492;2022-12-29T06:36:57;4.62;85.53
65470;DHT22;52067;50.710;14.492;2022-12-29T06:39:22;4.63;85.69
65470;DHT22;52067;50.710;14.492;2022-12-29T06:41:48;4.63;85.93
65470;DHT22;52067;50.710;14.492;2022-12-29T06:44:13;4.69;85.96
65470;DHT22;52067;50.710;14.492;2022-12-29T06:46:38;4.49;86.15
65470;DHT22;52067;50.710;14.492;2022-12-29T06:49:04;4.15;88.44
65470;DHT22;52067;50.710;14.492;2022-12-29T06:51:29;4.49;88.09
65470;DHT22;52067;50.710;14.492;2022-12-29T06:53:55;4.55;87.34
65470;DHT22;52067;50.710;14.492;2022-12-29T06:56:20;4.61;87.25
65470;DHT22;52067;50.710;14.492;2022-12-29T06:58:45;4.53;87.51
65470;DHT22;52067;50.710;14.492;2022-12-29T07:01:11;4.30;88.77
65470;DHT22;52067;50.710;14.492;2022-12-29T07:03:36;4.34;89.19
65470;DHT22;52067;50.710;14.492;2022-12-29T07:06:02;4.13;89.02
65470;DHT22;52067;50.710;14.492;2022-12-29T07:08:27;3.97;89.80
65470;DHT22;52067;50.710;14.492;2022-12-29T07:10:52;4.14;89.78
65470;DHT22;52067;50.710;14.492;2022-12-29T07:13:18;3.87;89.75
65470;DHT22;52067;50.710;14.492;2022-12-29T07:15:43;3.74;90.53
65470;DHT22;52067;50.710;14.492;2022-12-29T07:18:09;3.74;90.41
65470;DHT22;52067;50.710;14.492;2022-12-29T07:20:34;3.69;90.13
65470;DHT22;52067;50.710;14.492;2022-12-29T07:22:59;3.72;90.44
65470;DHT22;52067;50.710;14.492;2022-12-29T07:25:25;3.86;90.29
65470;DHT22;52067;50.710;14.492;2022-12-29T07:27:50;3.84;89.98
65470;DHT22;52067;50.710;14.492;2022-12-29T07:30:16;4.01;89.91
65470;DHT22;52067;50.710;14.492;2022-12-29T07:32:41;3.97;90.08
65470;DHT22;52067;50.710;14.492;2022-12-29T07:35:07;4.05;89.61
65470;DHT22;52067;50.710;14.492;2022-12-29T07:37:33;4.08;89.05
65470;DHT22;52067;50.710;14.492;2022-12-29T07:40:00;4.18;88.41
65470;DHT22;52067;50.710;14.492;2022-12-29T07:42:25;4.13;87.93
65470;DHT22;52067;50.710;14.492;2022-12-29T07:44:51;4.13;87.95
65470;DHT22;52067;50.710;14.492;2022-12-29T07:47:16;4.14;88.11
65470;DHT22;52067;50.710;14.492;2022-12-29T07:49:41;4.22;87.96
65470;DHT22;52067;50.710;14.492;2022-12-29T07:52:07;4.17;88.32
65470;DHT22;52067;50.710;14.492;2022-12-29T07:54:32;4.04;88.49
65470;DHT22;52067;50.710;14.492;2022-12-29T07:56:57;4.03;88.38
65470;DHT22;52067;50.710;14.492;2022-12-29T07:59:25;3.86;88.62
65470;DHT22;52067;50.710;14.492;2022-12-29T08:01:50;4.00;88.45
65470;DHT22;52067;50.710;14.492;2022-12-29T08:04:15;4.10;88.17
65470;DHT22;52067;50.710;14.492;2022-12-29T08:06:41;4.15;87.99
65470;DHT22;52067;50.710;14.492;2022-12-29T08:09:07;4.21;87.88
65470;DHT22;52067;50.710;14.492;2022-12-29T08:11:33;4.25;87.76
65470;DHT22;52067;50.710;14.492;2022-12-29T08:13:58;4.34;87.82
65470;DHT22;52067;50.710;14.492;2022-12-29T08:16:23;4.35;87.39
65470;DHT22;52067;50.710;14.492;2022-12-29T08:18:49;4.42;87.47
65470;DHT22;52067;50.710;14.492;2022-12-29T08:21:14;3.89;88.20
65470;DHT22;52067;50.710;14.492;2022-12-29T08:23:40;4.04;88.49
65470;DHT22;52067;50.710;14.492;2022-12-29T08:26:05;4.34;87.79
65470;DHT22;52067;50.710;14.492;2022-12-29T08:28:32;4.45;87.63
65470;DHT22;52067;50.710;14.492;2022-12-29T08:30:58;4.87;86.94
65470;DHT22;52067;50.710;14.492;2022-12-29T08:33:24;5.17;85.74
65470;DHT22;52067;50.710;14.492;2022-12-29T08:35:49;5.31;84.53
65470;DHT22;52067;50.710;14.492;2022-12-29T08:38:14;5.13;85.19
65470;DHT22;52067;50.710;14.492;2022-12-29T08:40:40;4.96;86.31
65470;DHT22;52067;50.710;14.492;2022-12-29T08:43:05;5.00;85.90
65470;DHT22;52067;50.710;14.492;2022-12-29T08:45:31;5.34;84.26
65470;DHT22;52067;50.710;14.492;2022-12-29T08:47:56;5.68;83.66
65470;DHT22;52067;50.710;14.492;2022-12-29T08:50:21;6.09;81.62
65470;DHT22;52067;50.710;14.492;2022-12-29T08:52:47;6.61;81.09
65470;DHT22;52067;50.710;14.492;2022-12-29T08:55:12;6.78;79.48
65470;DHT22;52067;50.710;14.492;2022-12-29T08:57:38;6.17;81.66
65470;DHT22;52067;50.710;14.492;2022-12-29T09:00:04;6.65;81.42
65470;DHT22;52067;50.710;14.492;2022-12-29T09:02:29;6.42;80.63
65470;DHT22;52067;50.710;14.492;2022-12-29T09:04:55;6.65;81.01
65470;DHT22;52067;50.710;14.492;2022-12-29T09:07:23;6.75;80.58
65470;DHT22;52067;50.710;14.492;2022-12-29T09:09:48;6.20;83.65
65470;DHT22;52067;50.710;14.492;2022-12-29T09:12:15;6.16;83.56
65470;DHT22;52067;50.710;14.492;2022-12-29T09:14:41;6.31;83.38
65470;DHT22;52067;50.710;14.492;2022-12-29T09:17:08;6.45;82.66
65470;DHT22;52067;50.710;14.492;2022-12-29T09:19:52;6.41;83.78
65470;DHT22;52067;50.710;14.492;2022-12-29T09:22:17;6.81;81.71
65470;DHT22;52067;50.710;14.492;2022-12-29T09:24:42;7.12;80.33
65470;DHT22;52067;50.710;14.492;2022-12-29T09:27:08;7.29;79.76
65470;DHT22;52067;50.710;14.492;2022-12-29T09:29:33;7.46;79.37
65470;DHT22;52067;50.710;14.492;2022-12-29T09:31:58;6.96;81.41
65470;DHT22;52067;50.710;14.492;2022-12-29T09:34:24;7.39;80.11
65470;DHT22;52067;50.710;14.492;2022-12-29T09:36:49;7.54;79.41
65470;DHT22;52067;50.710;14.492;2022-12-29T09:39:15;7.88;79.22
65470;DHT22;52067;50.710;14.492;2022-12-29T09:41:51;7.92;78.81
65470;DHT22;52067;50.710;14.492;2022-12-29T09:47:16;8.16;77.55
65470;DHT22;52067;50.710;14.492;2022-12-29T09:49:47;7.68;78.77
65470;DHT22;52067;50.710;14.492;2022-12-29T09:53:09;8.39;77.21
65470;DHT22;52067;50.710;14.492;2022-12-29T09:55:44;8.09;75.73
65470;DHT22;52067;50.710;14.492;2022-12-29T09:58:36;8.30;77.31
65470;DHT22;52067;50.710;14.492;2022-12-29T10:01:07;8.35;76.91
65470;DHT22;52067;50.710;14.492;2022-12-29T10:03:46;8.42;76.02
65470;DHT22;52067;50.710;14.492;2022-12-29T10:06:25;8.50;76.30
65470;DHT22;52067;50.710;14.492;2022-12-29T10:08:57;8.66;76.94
65470;DHT22;52067;50.710;14.492;2022-12-29T10:19:20;9.03;73.74
65470;DHT22;52067;50.710;14.492;2022-12-29T10:24:26;9.32;74.94
65470;DHT22;52067;50.710;14.492;2022-12-29T10:26:55;9.46;72.60
65470;DHT22;52067;50.710;14.492;2022-12-29T10:29:25;10.28;68.47
65470;DHT22;52067;50.710;14.492;2022-12-29T10:31:58;10.01;68.01
65470;DHT22;52067;50.710;14.492;2022-12-29T10:34:29;10.44;67.17
65470;DHT22;52067;50.710;14.492;2022-12-29T10:37:09;10.83;64.82
65470;DHT22;52067;50.710;14.492;2022-12-29T10:39:43;11.10;62.24
65470;DHT22;52067;50.710;14.492;2022-12-29T10:42:19;11.50;58.65
65470;DHT22;52067;50.710;14.492;2022-12-29T10:44:46;11.78;58.27
65470;DHT22;52067;50.710;14.492;2022-12-29T10:47:15;12.19;57.02
65470;DHT22;52067;50.710;14.492;2022-12-29T10:49:42;12.75;57.22
65470;DHT22;52067;50.710;14.492;2022-12-29T10:52:10;12.67;56.26
65470;DHT22;52067;50.710;14.492;2022-12-29T10:54:51;12.19;56.29
65470;DHT22;52067;50.710;14.492;2022-12-29T10:57:32;12.27;55.87
65470;DHT22;52067;50.710;14.492;2022-12-29T10:59:59;12.07;54.56
65470;DHT22;52067;50.710;14.492;2022-12-29T11:07:56;11.61;55.62
65470;DHT22;52067;50.710;14.492;2022-12-29T11:10:36;11.59;57.77
65470;DHT22;52067;50.710;14.492;2022-12-29T11:13:14;12.02;58.09
65470;DHT22;52067;50.710;14.492;2022-12-29T11:15:45;11.75;58.91
65470;DHT22;52067;50.710;14.492;2022-12-29T11:20:43;11.78;56.58
65470;DHT22;52067;50.710;14.492;2022-12-29T11:28:43;12.06;56.54
65470;DHT22;52067;50.710;14.492;2022-12-29T11:31:10;12.10;55.67
65470;DHT22;52067;50.710;14.492;2022-12-29T11:33:37;12.57;55.86
65470;DHT22;52067;50.710;14.492;2022-12-29T11:36:07;12.81;54.12
65470;DHT22;52067;50.710;14.492;2022-12-29T11:38:50;12.94;54.27
65470;DHT22;52067;50.710;14.492;2022-12-29T11:41:34;13.16;53.55
65470;DHT22;52067;50.710;14.492;2022-12-29T11:44:02;13.57;52.66
65470;DHT22;52067;50.710;14.492;2022-12-29T11:46:34;12.87;54.37
65470;DHT22;52067;50.710;14.492;2022-12-29T11:49:01;12.78;53.93
65470;DHT22;52067;50.710;14.492;2022-12-29T11:51:30;12.50;54.41
65470;DHT22;52067;50.710;14.492;2022-12-29T11:54:00;12.30;56.23
65470;DHT22;52067;50.710;14.492;2022-12-29T11:56:45;12.60;55.00
65470;DHT22;52067;50.710;14.492;2022-12-29T11:59:34;12.58;56.23
65470;DHT22;52067;50.710;14.492;2022-12-29T12:02:26;12.13;57.59
65470;DHT22;52067;50.710;14.492;2022-12-29T12:04:59;11.85;56.76
65470;DHT22;52067;50.710;14.492;2022-12-29T12:07:44;11.24;58.38
65470;DHT22;52067;50.710;14.492;2022-12-29T12:10:19;11.28;58.49
65470;DHT22;52067;50.710;14.492;2022-12-29T12:12:53;11.16;59.29
65470;DHT22;52067;50.710;14.492;2022-12-29T12:15:33;11.19;59.11
65470;DHT22;52067;50.710;14.492;2022-12-29T12:18:24;10.99;59.55
65470;DHT22;52067;50.710;14.492;2022-12-29T12:20:57;10.96;59.91
65470;DHT22;52067;50.710;14.492;2022-12-29T12:23:41;10.83;61.84
65470;DHT22;52067;50.710;14.492;2022-12-29T12:26:21;10.62;61.38
65470;DHT22;52067;50.710;14.492;2022-12-29T12:28:57;10.69;61.18
65470;DHT22;52067;50.710;14.492;2022-12-29T12:39:34;10.92;61.70
65470;DHT22;52067;50.710;14.492;2022-12-29T12:42:47;11.04;61.83
65470;DHT22;52067;50.710;14.492;2022-12-29T12:53:44;11.11;62.73
65470;DHT22;52067;50.710;14.492;2022-12-29T12:58:57;10.88;63.91
65470;DHT22;52067;50.710;14.492;2022-12-29T13:01:32;10.83;63.89
65470;DHT22;52067;50.710;14.492;2022-12-29T13:15:43;10.52;64.91
65470;DHT22;52067;50.710;14.492;2022-12-29T13:21:30;10.62;65.09
65470;DHT22;52067;50.710;14.492;2022-12-29T13:24:01;10.65;64.85
65470;DHT22;52067;50.710;14.492;2022-12-29T13:26:33;10.69;65.14
65470;DHT22;52067;50.710;14.492;2022-12-29T13:36:58;10.68;64.77
65470;DHT22;52067;50.710;14.492;2022-12-29T13:39:36;10.72;65.00
65470;DHT22;52067;50.710;14.492;2022-12-29T13:42:04;10.73;65.15
65470;DHT22;52067;50.710;14.492;2022-12-29T13:46:58;10.77;65.43
65470;DHT22;52067;50.710;14.492;2022-12-29T13:49:25;10.68;64.47
65470;DHT22;52067;50.710;14.492;2022-12-29T13:51:54;10.75;65.43
65470;DHT22;52067;50.710;14.492;2022-12-29T13:54:30;10.73;66.19
65470;DHT22;52067;50.710;14.492;2022-12-29T13:57:37;10.63;66.78
65470;DHT22;52067;50.710;14.492;2022-12-29T14:00:13;10.59;66.58
65470;DHT22;52067;50.710;14.492;2022-12-29T14:07:43;10.58;66.05
65470;DHT22;52067;50.710;14.492;2022-12-29T14:10:29;10.58;66.78
65470;DHT22;52067;50.710;14.492;2022-12-29T14:13:19;10.45;66.89
65470;DHT22;52067;50.710;14.492;2022-12-29T14:15:56;10.40;66.68
65470;DHT22;52067;50.710;14.492;2022-12-29T14:18:28;10.30;67.46
65470;DHT22;52067;50.710;14.492;2022-12-29T14:21:18;10.38;67.49
65470;DHT22;52067;50.710;14.492;2022-12-29T14:23:46;10.25;67.43
65470;DHT22;52067;50.710;14.492;2022-12-29T14:26:17;10.20;67.84
65470;DHT22;52067;50.710;14.492;2022-12-29T14:28:45;10.32;67.55
65470;DHT22;52067;50.710;14.492;2022-12-29T14:33:41;10.38;67.40
65470;DHT22;52067;50.710;14.492;2022-12-29T14:38:45;10.44;66.95
65470;DHT22;52067;50.710;14.492;2022-12-29T14:41:27;10.45;68.01
65470;DHT22;52067;50.710;14.492;2022-12-29T14:44:14;10.46;67.99
65470;DHT22;52067;50.710;14.492;2022-12-29T14:46:48;10.38;67.75
65470;DHT22;52067;50.710;14.492;2022-12-29T14:49:26;10.31;68.01
65470;DHT22;52067;50.710;14.492;2022-12-29T14:51:55;10.25;68.43
65470;DHT22;52067;50.710;14.492;2022-12-29T14:57:08;10.03;69.49
65470;DHT22;52067;50.710;14.492;2022-12-29T14:59:36;9.97;69.67
65470;DHT22;52067;50.710;14.492;2022-12-29T15:02:04;9.89;70.27
65470;DHT22;52067;50.710;14.492;2022-12-29T15:04:38;9.91;69.85
65470;DHT22;52067;50.710;14.492;2022-12-29T15:07:08;9.89;70.14
65470;DHT22;52067;50.710;14.492;2022-12-29T15:09:58;9.97;68.69
65470;DHT22;52067;50.710;14.492;2022-12-29T15:14:57;9.87;70.38
65470;DHT22;52067;50.710;14.492;2022-12-29T15:17:34;9.87;70.04
65470;DHT22;52067;50.710;14.492;2022-12-29T15:20:30;9.91;69.90
65470;DHT22;52067;50.710;14.492;2022-12-29T15:23:11;9.87;70.52
65470;DHT22;52067;50.710;14.492;2022-12-29T15:25:47;9.91;70.70
65470;DHT22;52067;50.710;14.492;2022-12-29T15:28:15;9.89;70.49
65470;DHT22;52067;50.710;14.492;2022-12-29T15:31:03;10.07;68.88
65470;DHT22;52067;50.710;14.492;2022-12-29T15:33:29;10.30;68.34
65470;DHT22;52067;50.710;14.492;2022-12-29T15:35:56;10.31;69.16
65470;DHT22;52067;50.710;14.492;2022-12-29T15:38:28;10.45;68.71
65470;DHT22;52067;50.710;14.492;2022-12-29T15:41:01;10.42;68.77
65470;DHT22;52067;50.710;14.492;2022-12-29T15:46:21;10.35;68.70
65470;DHT22;52067;50.710;14.492;2022-12-29T15:48:46;10.45;67.90
65470;DHT22;52067;50.710;14.492;2022-12-29T15:51:30;10.44;68.27
65470;DHT22;52067;50.710;14.492;2022-12-29T15:53:57;10.34;68.44
65470;DHT22;52067;50.710;14.492;2022-12-29T15:56:36;10.22;68.63
65470;DHT22;52067;50.710;14.492;2022-12-29T15:59:04;10.18;68.81
65470;DHT22;52067;50.710;14.492;2022-12-29T16:01:32;10.22;68.66
65470;DHT22;52067;50.710;14.492;2022-12-29T16:03:59;10.20;68.32
65470;DHT22;52067;50.710;14.492;2022-12-29T16:09:04;10.01;69.32
65470;DHT22;52067;50.710;14.492;2022-12-29T16:11:37;10.14;68.99
65470;DHT22;52067;50.710;14.492;2022-12-29T16:14:09;10.11;69.30
65470;DHT22;52067;50.710;14.492;2022-12-29T16:16:38;10.04;69.05
65470;DHT22;52067;50.710;14.492;2022-12-29T16:21:57;9.97;69.49
65470;DHT22;52067;50.710;14.492;2022-12-29T16:24:25;9.86;70.05
65470;DHT22;52067;50.710;14.492;2022-12-29T16:27:20;9.90;69.96
65470;DHT22;52067;50.710;14.492;2022-12-29T16:29:51;9.94;69.58
65470;DHT22;52067;50.710;14.492;2022-12-29T16:32:26;9.95;69.84
65470;DHT22;52067;50.710;14.492;2022-12-29T16:35:10;9.91;70.25
65470;DHT22;52067;50.710;14.492;2022-12-29T16:37:36;9.82;70.40
65470;DHT22;52067;50.710;14.492;2022-12-29T16:42:46;9.74;70.89
65470;DHT22;52067;50.710;14.492;2022-12-29T16:47:55;9.82;71.08
65470;DHT22;52067;50.710;14.492;2022-12-29T16:50:35;9.86;70.76
65470;DHT22;52067;50.710;14.492;2022-12-29T16:53:02;9.98;70.46
65470;DHT22;52067;50.710;14.492;2022-12-29T16:55:29;10.04;70.63
65470;DHT22;52067;50.710;14.492;2022-12-29T16:57:55;9.93;71.17
65470;DHT22;52067;50.710;14.492;2022-12-29T17:00:27;9.82;70.88
65470;DHT22;52067;50.710;14.492;2022-12-29T17:02:56;9.87;70.75
65470;DHT22;52067;50.710;14.492;2022-12-29T17:05:23;9.89;70.54
65470;DHT22;52067;50.710;14.492;2022-12-29T17:07:48;9.86;70.66
65470;DHT22;52067;50.710;14.492;2022-12-29T17:10:14;9.84;70.84
65470;DHT22;52067;50.710;14.492;2022-12-29T17:12:41;9.77;70.64
65470;DHT22;52067;50.710;14.492;2022-12-29T17:15:14;9.84;70.46
65470;DHT22;52067;50.710;14.492;2022-12-29T17:17:45;9.84;70.48
65470;DHT22;52067;50.710;14.492;2022-12-29T17:20:18;9.87;70.36
65470;DHT22;52067;50.710;14.492;2022-12-29T17:22:45;9.83;70.51
65470;DHT22;52067;50.710;14.492;2022-12-29T17:25:18;9.77;71.02
65470;DHT22;52067;50.710;14.492;2022-12-29T17:30:21;9.57;71.80
65470;DHT22;52067;50.710;14.492;2022-12-29T17:33:00;9.52;71.78
65470;DHT22;52067;50.710;14.492;2022-12-29T17:35:27;9.49;72.03
65470;DHT22;52067;50.710;14.492;2022-12-29T17:37:53;9.25;72.99
65470;DHT22;52067;50.710;14.492;2022-12-29T17:40:21;9.11;73.56
65470;DHT22;52067;50.710;14.492;2022-12-29T17:42:49;9.24;72.86
65470;DHT22;52067;50.710;14.492;2022-12-29T17:45:17;9.10;73.10
65470;DHT22;52067;50.710;14.492;2022-12-29T17:47:43;9.07;73.37
65470;DHT22;52067;50.710;14.492;2022-12-29T17:50:14;9.00;73.81
65470;DHT22;52067;50.710;14.492;2022-12-29T17:52:40;8.91;73.89
65470;DHT22;52067;50.710;14.492;2022-12-29T17:55:14;8.97;73.60
65470;DHT22;52067;50.710;14.492;2022-12-29T17:57:40;9.01;73.44
65470;DHT22;52067;50.710;14.492;2022-12-29T18:00:07;8.92;73.77
65470;DHT22;52067;50.710;14.492;2022-12-29T18:02:34;8.98;73.68